sensor_id;sensor_type;location;lat;lon;timestamp;P1;durP1;ratioP1;P2;durP2;ratioP2
41556;SDS011;27720;51.992;5.890;2023-08-07T08:33:17;5.75;;;3.20;;
41556;SDS011;27720;51.992;5.890;2023-08-07T08:35:43;9.52;;;2.92;;
41556;SDS011;27720;51.992;5.890;2023-08-07T08:38:11;8.90;;;3.47;;
41556;SDS011;27720;51.992;5.890;2023-08-07T08:40:37;10.35;;;2.83;;
41556;SDS011;27720;51.992;5.890;2023-08-07T08:43:05;10.45;;;2.80;;
41556;SDS011;27720;51.992;5.890;2023-08-07T08:45:31;11.25;;;2.60;;
41556;SDS011;27720;51.992;5.890;2023-08-07T08:48:03;12.02;;;2.13;;
41556;SDS011;27720;51.992;5.890;2023-08-07T08:50:30;5.63;;;2.60;;
41556;SDS011;27720;51.992;5.890;2023-08-07T08:52:58;6.25;;;2.25;;
41556;SDS011;27720;51.992;5.890;2023-08-07T08:55:28;5.32;;;1.75;;
41556;SDS011;27720;51.992;5.890;2023-08-07T08:57:55;3.50;;;1.67;;
41556;SDS011;27720;51.992;5.890;2023-08-07T09:00:25;4.95;;;1.73;;
41556;SDS011;27720;51.992;5.890;2023-08-07T09:02:54;2.33;;;1.77;;
41556;SDS011;27720;51.992;5.890;2023-08-07T09:05:20;5.22;;;1.90;;
41556;SDS011;27720;51.992;5.890;2023-08-07T09:07:49;5.80;;;2.00;;
41556;SDS011;27720;51.992;5.890;2023-08-07T09:10:16;4.20;;;2.03;;
41556;SDS011;27720;51.992;5.890;2023-08-07T09:12:59;7.90;;;2.45;;
41556;SDS011;27720;51.992;5.890;2023-08-07T09:15:29;10.32;;;2.03;;
41556;SDS011;27720;51.992;5.890;2023-08-07T09:17:56;5.82;;;2.22;;
41556;SDS011;27720;51.992;5.890;2023-08-07T09:20:24;3.08;;;1.83;;
41556;SDS011;27720;51.992;5.890;2023-08-07T09:22:54;9.02;;;2.22;;
41556;SDS011;27720;51.992;5.890;2023-08-07T09:25:29;8.38;;;2.33;;
41556;SDS011;27720;51.992;5.890;2023-08-07T09:27:58;7.93;;;2.25;;
41556;SDS011;27720;51.992;5.890;2023-08-07T09:30:27;11.77;;;2.30;;
41556;SDS011;27720;51.992;5.890;2023-08-07T09:32:54;8.05;;;2.30;;
41556;SDS011;27720;51.992;5.890;2023-08-07T09:35:21;7.95;;;1.83;;
41556;SDS011;27720;51.992;5.890;2023-08-07T09:37:48;6.32;;;1.92;;
41556;SDS011;27720;51.992;5.890;2023-08-07T09:40:15;3.35;;;1.50;;
41556;SDS011;27720;51.992;5.890;2023-08-07T09:42:41;8.70;;;1.90;;
41556;SDS011;27720;51.992;5.890;2023-08-07T09:45:22;5.50;;;1.83;;
41556;SDS011;27720;51.992;5.890;2023-08-07T09:47:58;12.38;;;1.90;;
41556;SDS011;27720;51.992;5.890;2023-08-07T09:50:34;5.75;;;1.42;;
41556;SDS011;27720;51.992;5.890;2023-08-07T09:52:59;5.18;;;1.70;;
41556;SDS011;27720;51.992;5.890;2023-08-07T09:55:28;3.08;;;1.60;;
41556;SDS011;27720;51.992;5.890;2023-08-07T09:57:54;3.35;;;1.70;;
41556;SDS011;27720;51.992;5.890;2023-08-07T10:00:20;6.97;;;1.80;;
41556;SDS011;27720;51.992;5.890;2023-08-07T10:02:49;5.60;;;1.73;;
41556;SDS011;27720;51.992;5.890;2023-08-07T10:05:16;7.35;;;1.88;;
41556;SDS011;27720;51.992;5.890;2023-08-07T10:07:42;5.50;;;1.83;;
41556;SDS011;27720;51.992;5.890;2023-08-07T10:10:09;2.72;;;1.38;;
41556;SDS011;27720;51.992;5.890;2023-08-07T10:12:36;2.80;;;1.42;;
41556;SDS011;27720;51.992;5.890;2023-08-07T10:15:02;9.93;;;1.60;;
41556;SDS011;27720;51.992;5.890;2023-08-07T10:17:29;4.50;;;1.20;;
41556;SDS011;27720;51.992;5.890;2023-08-07T10:19:56;5.47;;;1.58;;
41556;SDS011;27720;51.992;5.890;2023-08-07T10:22:23;2.85;;;1.27;;
41556;SDS011;27720;51.992;5.890;2023-08-07T10:24:51;7.90;;;1.50;;
41556;SDS011;27720;51.992;5.890;2023-08-07T10:27:18;5.43;;;1.60;;
41556;SDS011;27720;51.992;5.890;2023-08-07T10:29:47;5.70;;;1.65;;
41556;SDS011;27720;51.992;5.890;2023-08-07T10:32:14;7.22;;;1.50;;
41556;SDS011;27720;51.992;5.890;2023-08-07T10:34:42;4.45;;;1.23;;
41556;SDS011;27720;51.992;5.890;2023-08-07T10:40:03;4.32;;;1.67;;
41556;SDS011;27720;51.992;5.890;2023-08-07T10:42:52;4.63;;;1.38;;
41556;SDS011;27720;51.992;5.890;2023-08-07T10:45:21;3.65;;;1.20;;
41556;SDS011;27720;51.992;5.890;2023-08-07T10:48:01;6.50;;;1.88;;
41556;SDS011;27720;51.992;5.890;2023-08-07T10:50:32;5.07;;;1.85;;
41556;SDS011;27720;51.992;5.890;2023-08-07T10:53:03;5.72;;;1.75;;
41556;SDS011;27720;51.992;5.890;2023-08-07T10:55:44;7.03;;;1.40;;
41556;SDS011;27720;51.992;5.890;2023-08-07T10:58:29;6.00;;;1.58;;
41556;SDS011;27720;51.992;5.890;2023-08-07T11:06:26;3.90;;;1.20;;
41556;SDS011;27720;51.992;5.890;2023-08-07T11:08:54;6.18;;;1.40;;
41556;SDS011;27720;51.992;5.890;2023-08-07T11:11:20;3.40;;;1.33;;
41556;SDS011;27720;51.992;5.890;2023-08-07T11:13:46;3.13;;;1.55;;
41556;SDS011;27720;51.992;5.890;2023-08-07T11:16:12;3.05;;;1.20;;
41556;SDS011;27720;51.992;5.890;2023-08-07T11:18:38;3.20;;;1.20;;
41556;SDS011;27720;51.992;5.890;2023-08-07T11:21:09;6.03;;;1.40;;
41556;SDS011;27720;51.992;5.890;2023-08-07T11:23:37;4.05;;;1.00;;
41556;SDS011;27720;51.992;5.890;2023-08-07T11:26:03;3.33;;;1.33;;
41556;SDS011;27720;51.992;5.890;2023-08-07T11:28:29;2.65;;;1.45;;
41556;SDS011;27720;51.992;5.890;2023-08-07T11:30:55;1.65;;;1.08;;
41556;SDS011;27720;51.992;5.890;2023-08-07T11:33:23;3.30;;;1.40;;
41556;SDS011;27720;51.992;5.890;2023-08-07T11:35:50;2.67;;;1.17;;
41556;SDS011;27720;51.992;5.890;2023-08-07T11:38:36;6.13;;;1.38;;
41556;SDS011;27720;51.992;5.890;2023-08-07T11:41:08;3.17;;;1.55;;
41556;SDS011;27720;51.992;5.890;2023-08-07T11:43:35;5.45;;;1.23;;
41556;SDS011;27720;51.992;5.890;2023-08-07T11:46:06;3.42;;;1.23;;
41556;SDS011;27720;51.992;5.890;2023-08-07T11:48:34;6.78;;;1.48;;
41556;SDS011;27720;51.992;5.890;2023-08-07T11:51:01;5.82;;;1.70;;
41556;SDS011;27720;51.992;5.890;2023-08-07T11:53:28;5.38;;;1.10;;
41556;SDS011;27720;51.992;5.890;2023-08-07T11:58:36;2.83;;;1.20;;
41556;SDS011;27720;51.992;5.890;2023-08-07T12:01:08;3.17;;;1.43;;
41556;SDS011;27720;51.992;5.890;2023-08-07T12:03:36;3.95;;;1.20;;
41556;SDS011;27720;51.992;5.890;2023-08-07T12:11:00;5.15;;;1.55;;
41556;SDS011;27720;51.992;5.890;2023-08-07T12:13:28;4.65;;;1.25;;
41556;SDS011;27720;51.992;5.890;2023-08-07T12:15:54;3.65;;;1.00;;
41556;SDS011;27720;51.992;5.890;2023-08-07T12:18:22;5.65;;;1.52;;
41556;SDS011;27720;51.992;5.890;2023-08-07T12:20:52;5.93;;;1.17;;
41556;SDS011;27720;51.992;5.890;2023-08-07T12:23:22;1.90;;;1.10;;
41556;SDS011;27720;51.992;5.890;2023-08-07T12:25:48;5.93;;;0.98;;
41556;SDS011;27720;51.992;5.890;2023-08-07T12:28:15;5.95;;;1.10;;
41556;SDS011;27720;51.992;5.890;2023-08-07T12:30:43;4.40;;;1.15;;
41556;SDS011;27720;51.992;5.890;2023-08-07T12:33:11;7.35;;;1.45;;
41556;SDS011;27720;51.992;5.890;2023-08-07T12:35:36;4.78;;;1.17;;
41556;SDS011;27720;51.992;5.890;2023-08-07T12:38:02;2.78;;;0.90;;
41556;SDS011;27720;51.992;5.890;2023-08-07T12:40:30;3.85;;;1.08;;
41556;SDS011;27720;51.992;5.890;2023-08-07T12:42:56;4.07;;;1.23;;
41556;SDS011;27720;51.992;5.890;2023-08-07T12:45:23;4.55;;;1.45;;
41556;SDS011;27720;51.992;5.890;2023-08-07T12:47:48;6.13;;;1.38;;
41556;SDS011;27720;51.992;5.890;2023-08-07T12:50:14;1.95;;;0.88;;
41556;SDS011;27720;51.992;5.890;2023-08-07T12:52:40;4.22;;;1.10;;
41556;SDS011;27720;51.992;5.890;2023-08-07T12:55:06;3.63;;;1.23;;
41556;SDS011;27720;51.992;5.890;2023-08-07T12:57:32;1.88;;;1.10;;
41556;SDS011;27720;51.992;5.890;2023-08-07T12:59:58;5.88;;;1.20;;
41556;SDS011;27720;51.992;5.890;2023-08-07T13:02:24;4.45;;;1.00;;
41556;SDS011;27720;51.992;5.890;2023-08-07T13:04:50;4.50;;;1.20;;
41556;SDS011;27720;51.992;5.890;2023-08-07T13:07:16;3.67;;;1.52;;
41556;SDS011;27720;51.992;5.890;2023-08-07T13:09:43;2.67;;;1.05;;
41556;SDS011;27720;51.992;5.890;2023-08-07T13:12:09;5.22;;;1.00;;
41556;SDS011;27720;51.992;5.890;2023-08-07T13:14:34;4.40;;;0.90;;
41556;SDS011;27720;51.992;5.890;2023-08-07T13:17:00;4.55;;;0.77;;
41556;SDS011;27720;51.992;5.890;2023-08-07T13:19:26;2.40;;;0.85;;
41556;SDS011;27720;51.992;5.890;2023-08-07T13:21:51;3.45;;;0.85;;
41556;SDS011;27720;51.992;5.890;2023-08-07T13:24:17;8.80;;;1.08;;
41556;SDS011;27720;51.992;5.890;2023-08-07T13:26:43;4.68;;;0.82;;
41556;SDS011;27720;51.992;5.890;2023-08-07T13:29:11;3.85;;;0.90;;
41556;SDS011;27720;51.992;5.890;2023-08-07T13:31:37;3.35;;;0.77;;
41556;SDS011;27720;51.992;5.890;2023-08-07T13:34:03;3.38;;;0.93;;
41556;SDS011;27720;51.992;5.890;2023-08-07T13:36:36;4.25;;;1.08;;
41556;SDS011;27720;51.992;5.890;2023-08-07T13:41:29;3.05;;;0.80;;
41556;SDS011;27720;51.992;5.890;2023-08-07T13:43:55;2.08;;;0.60;;
41556;SDS011;27720;51.992;5.890;2023-08-07T13:46:23;3.10;;;1.00;;
41556;SDS011;27720;51.992;5.890;2023-08-07T13:48:50;3.50;;;0.80;;
41556;SDS011;27720;51.992;5.890;2023-08-07T13:51:17;3.15;;;0.73;;
41556;SDS011;27720;51.992;5.890;2023-08-07T13:53:43;1.90;;;0.77;;
41556;SDS011;27720;51.992;5.890;2023-08-07T13:56:09;2.78;;;1.05;;
41556;SDS011;27720;51.992;5.890;2023-08-07T13:58:38;1.60;;;0.70;;
41556;SDS011;27720;51.992;5.890;2023-08-07T14:01:04;2.22;;;0.57;;
41556;SDS011;27720;51.992;5.890;2023-08-07T14:03:30;1.90;;;0.77;;
41556;SDS011;27720;51.992;5.890;2023-08-07T14:05:56;1.33;;;0.50;;
41556;SDS011;27720;51.992;5.890;2023-08-07T14:08:22;3.50;;;0.98;;
41556;SDS011;27720;51.992;5.890;2023-08-07T14:10:48;2.30;;;0.65;;
41556;SDS011;27720;51.992;5.890;2023-08-07T14:13:13;3.45;;;0.73;;
41556;SDS011;27720;51.992;5.890;2023-08-07T14:15:39;2.25;;;0.80;;
41556;SDS011;27720;51.992;5.890;2023-08-07T14:18:05;2.95;;;0.70;;
41556;SDS011;27720;51.992;5.890;2023-08-07T14:20:31;2.35;;;0.63;;
41556;SDS011;27720;51.992;5.890;2023-08-07T14:22:57;1.58;;;0.60;;
41556;SDS011;27720;51.992;5.890;2023-08-07T14:25:24;1.95;;;0.70;;
41556;SDS011;27720;51.992;5.890;2023-08-07T14:27:49;3.60;;;0.70;;
41556;SDS011;27720;51.992;5.890;2023-08-07T14:30:15;2.53;;;0.75;;
41556;SDS011;27720;51.992;5.890;2023-08-07T14:32:41;2.63;;;0.60;;
41556;SDS011;27720;51.992;5.890;2023-08-07T14:35:12;1.52;;;0.50;;
41556;SDS011;27720;51.992;5.890;2023-08-07T14:37:38;2.67;;;0.52;;
41556;SDS011;27720;51.992;5.890;2023-08-07T14:40:05;2.42;;;0.50;;
41556;SDS011;27720;51.992;5.890;2023-08-07T14:42:32;1.48;;;0.57;;
41556;SDS011;27720;51.992;5.890;2023-08-07T14:44:58;1.00;;;0.55;;
41556;SDS011;27720;51.992;5.890;2023-08-07T14:47:24;2.05;;;0.60;;
41556;SDS011;27720;51.992;5.890;2023-08-07T14:49:50;2.92;;;0.60;;
41556;SDS011;27720;51.992;5.890;2023-08-07T14:52:16;1.60;;;0.65;;
41556;SDS011;27720;51.992;5.890;2023-08-07T14:54:42;3.25;;;0.80;;
41556;SDS011;27720;51.992;5.890;2023-08-07T14:57:08;1.50;;;0.50;;
41556;SDS011;27720;51.992;5.890;2023-08-07T14:59:34;0.85;;;0.50;;
41556;SDS011;27720;51.992;5.890;2023-08-07T15:02:00;1.60;;;0.65;;
41556;SDS011;27720;51.992;5.890;2023-08-07T15:04:26;1.65;;;0.40;;
41556;SDS011;27720;51.992;5.890;2023-08-07T15:06:52;1.98;;;0.40;;
41556;SDS011;27720;51.992;5.890;2023-08-07T15:09:17;2.15;;;0.45;;
41556;SDS011;27720;51.992;5.890;2023-08-07T15:11:44;1.58;;;0.60;;
41556;SDS011;27720;51.992;5.890;2023-08-07T15:14:11;1.42;;;0.70;;
41556;SDS011;27720;51.992;5.890;2023-08-07T15:16:37;1.88;;;0.60;;
41556;SDS011;27720;51.992;5.890;2023-08-07T15:19:03;1.77;;;0.50;;
41556;SDS011;27720;51.992;5.890;2023-08-07T15:21:29;3.20;;;1.25;;
41556;SDS011;27720;51.992;5.890;2023-08-07T15:23:55;0.80;;;0.50;;
41556;SDS011;27720;51.992;5.890;2023-08-07T15:26:21;1.58;;;0.70;;
41556;SDS011;27720;51.992;5.890;2023-08-07T15:28:47;1.63;;;0.63;;
41556;SDS011;27720;51.992;5.890;2023-08-07T15:31:13;1.38;;;0.50;;
41556;SDS011;27720;51.992;5.890;2023-08-07T15:33:38;2.65;;;0.75;;
41556;SDS011;27720;51.992;5.890;2023-08-07T15:36:04;4.32;;;0.65;;
41556;SDS011;27720;51.992;5.890;2023-08-07T15:38:30;1.73;;;0.50;;
41556;SDS011;27720;51.992;5.890;2023-08-07T15:40:56;2.88;;;1.23;;
41556;SDS011;27720;51.992;5.890;2023-08-07T15:43:22;1.13;;;0.50;;
41556;SDS011;27720;51.992;5.890;2023-08-07T15:45:51;0.75;;;0.45;;
41556;SDS011;27720;51.992;5.890;2023-08-07T15:50:44;3.30;;;0.80;;
41556;SDS011;27720;51.992;5.890;2023-08-07T15:53:09;3.10;;;0.70;;
41556;SDS011;27720;51.992;5.890;2023-08-07T15:55:35;1.30;;;0.68;;
41556;SDS011;27720;51.992;5.890;2023-08-07T15:58:02;2.90;;;0.70;;
41556;SDS011;27720;51.992;5.890;2023-08-07T16:00:28;2.58;;;0.80;;
41556;SDS011;27720;51.992;5.890;2023-08-07T16:02:55;1.02;;;0.60;;
41556;SDS011;27720;51.992;5.890;2023-08-07T16:05:21;2.15;;;0.80;;
41556;SDS011;27720;51.992;5.890;2023-08-07T16:07:47;3.38;;;0.70;;
41556;SDS011;27720;51.992;5.890;2023-08-07T16:10:27;2.35;;;0.80;;
41556;SDS011;27720;51.992;5.890;2023-08-07T16:12:54;0.77;;;0.55;;
41556;SDS011;27720;51.992;5.890;2023-08-07T16:15:20;1.35;;;0.50;;
41556;SDS011;27720;51.992;5.890;2023-08-07T16:17:47;2.63;;;1.00;;
41556;SDS011;27720;51.992;5.890;2023-08-07T16:20:13;3.08;;;0.70;;
41556;SDS011;27720;51.992;5.890;2023-08-07T16:22:40;1.60;;;0.80;;
41556;SDS011;27720;51.992;5.890;2023-08-07T16:25:06;2.17;;;0.75;;
41556;SDS011;27720;51.992;5.890;2023-08-07T16:27:32;1.85;;;0.90;;
41556;SDS011;27720;51.992;5.890;2023-08-07T16:29:59;3.17;;;0.80;;
41556;SDS011;27720;51.992;5.890;2023-08-07T16:32:32;3.13;;;1.00;;
41556;SDS011;27720;51.992;5.890;2023-08-07T16:34:59;2.65;;;1.15;;
41556;SDS011;27720;51.992;5.890;2023-08-07T16:37:28;1.55;;;0.52;;
41556;SDS011;27720;51.992;5.890;2023-08-07T16:39:55;2.72;;;0.80;;
41556;SDS011;27720;51.992;5.890;2023-08-07T16:42:21;2.53;;;0.98;;
41556;SDS011;27720;51.992;5.890;2023-08-07T16:44:47;3.03;;;1.08;;
41556;SDS011;27720;51.992;5.890;2023-08-07T16:47:14;3.25;;;1.20;;
41556;SDS011;27720;51.992;5.890;2023-08-07T16:49:40;1.23;;;0.80;;
41556;SDS011;27720;51.992;5.890;2023-08-07T16:52:06;1.42;;;0.80;;
41556;SDS011;27720;51.992;5.890;2023-08-07T16:54:33;1.63;;;0.85;;
41556;SDS011;27720;51.992;5.890;2023-08-07T16:57:01;2.75;;;0.52;;
41556;SDS011;27720;51.992;5.890;2023-08-07T16:59:28;2.13;;;0.80;;
41556;SDS011;27720;51.992;5.890;2023-08-07T17:01:54;2.72;;;0.70;;
41556;SDS011;27720;51.992;5.890;2023-08-07T17:04:21;0.80;;;0.50;;
41556;SDS011;27720;51.992;5.890;2023-08-07T17:06:47;1.45;;;0.50;;
41556;SDS011;27720;51.992;5.890;2023-08-07T17:09:16;1.33;;;0.70;;
41556;SDS011;27720;51.992;5.890;2023-08-07T17:11:44;1.88;;;0.63;;
41556;SDS011;27720;51.992;5.890;2023-08-07T17:14:10;1.42;;;0.60;;
41556;SDS011;27720;51.992;5.890;2023-08-07T17:16:36;1.27;;;0.55;;
41556;SDS011;27720;51.992;5.890;2023-08-07T17:19:02;1.35;;;0.52;;
41556;SDS011;27720;51.992;5.890;2023-08-07T17:21:28;1.40;;;0.60;;
41556;SDS011;27720;51.992;5.890;2023-08-07T17:23:54;3.25;;;0.90;;
41556;SDS011;27720;51.992;5.890;2023-08-07T17:26:20;1.88;;;0.57;;
41556;SDS011;27720;51.992;5.890;2023-08-07T17:28:48;3.28;;;0.60;;
41556;SDS011;27720;51.992;5.890;2023-08-07T17:31:14;2.50;;;1.00;;
41556;SDS011;27720;51.992;5.890;2023-08-07T17:33:42;1.42;;;0.77;;
41556;SDS011;27720;51.992;5.890;2023-08-07T17:36:08;1.33;;;0.70;;
41556;SDS011;27720;51.992;5.890;2023-08-07T17:38:33;1.05;;;0.65;;
41556;SDS011;27720;51.992;5.890;2023-08-07T17:41:02;1.33;;;0.85;;
41556;SDS011;27720;51.992;5.890;2023-08-07T17:43:28;2.50;;;0.93;;
41556;SDS011;27720;51.992;5.890;2023-08-07T17:45:54;1.50;;;0.80;;
41556;SDS011;27720;51.992;5.890;2023-08-07T17:48:20;2.45;;;0.68;;
41556;SDS011;27720;51.992;5.890;2023-08-07T17:50:50;1.67;;;0.77;;
41556;SDS011;27720;51.992;5.890;2023-08-07T17:53:19;1.00;;;0.70;;
41556;SDS011;27720;51.992;5.890;2023-08-07T17:55:45;3.03;;;0.93;;
41556;SDS011;27720;51.992;5.890;2023-08-07T17:58:11;2.13;;;0.88;;
41556;SDS011;27720;51.992;5.890;2023-08-07T18:00:37;1.70;;;0.70;;
41556;SDS011;27720;51.992;5.890;2023-08-07T18:03:02;1.85;;;0.80;;
41556;SDS011;27720;51.992;5.890;2023-08-07T18:05:34;1.63;;;0.88;;
41556;SDS011;27720;51.992;5.890;2023-08-07T18:08:00;1.30;;;0.68;;
41556;SDS011;27720;51.992;5.890;2023-08-07T18:10:26;0.82;;;0.60;;
41556;SDS011;27720;51.992;5.890;2023-08-07T18:12:52;1.17;;;0.60;;
41556;SDS011;27720;51.992;5.890;2023-08-07T18:15:18;2.70;;;0.70;;
41556;SDS011;27720;51.992;5.890;2023-08-07T18:17:43;1.30;;;0.60;;
41556;SDS011;27720;51.992;5.890;2023-08-07T18:20:09;2.03;;;0.80;;
41556;SDS011;27720;51.992;5.890;2023-08-07T18:22:41;0.88;;;0.68;;
41556;SDS011;27720;51.992;5.890;2023-08-07T18:25:07;0.70;;;0.50;;
41556;SDS011;27720;51.992;5.890;2023-08-07T18:27:33;1.02;;;0.60;;
41556;SDS011;27720;51.992;5.890;2023-08-07T18:29:59;1.85;;;0.88;;
41556;SDS011;27720;51.992;5.890;2023-08-07T18:32:29;1.60;;;0.60;;
41556;SDS011;27720;51.992;5.890;2023-08-07T18:34:55;0.60;;;0.50;;
41556;SDS011;27720;51.992;5.890;2023-08-07T18:37:24;0.55;;;0.35;;
41556;SDS011;27720;51.992;5.890;2023-08-07T18:39:50;0.98;;;0.50;;
41556;SDS011;27720;51.992;5.890;2023-08-07T18:42:16;2.25;;;0.73;;
41556;SDS011;27720;51.992;5.890;2023-08-07T18:44:43;1.55;;;0.50;;
41556;SDS011;27720;51.992;5.890;2023-08-07T18:47:08;0.47;;;0.30;;
41556;SDS011;27720;51.992;5.890;2023-08-07T18:49:34;0.60;;;0.50;;
41556;SDS011;27720;51.992;5.890;2023-08-07T18:52:05;2.25;;;1.67;;
41556;SDS011;27720;51.992;5.890;2023-08-07T18:54:31;1.58;;;0.43;;
41556;SDS011;27720;51.992;5.890;2023-08-07T18:56:57;0.73;;;0.50;;
41556;SDS011;27720;51.992;5.890;2023-08-07T18:59:23;1.38;;;0.50;;
41556;SDS011;27720;51.992;5.890;2023-08-07T19:01:49;1.77;;;0.70;;
41556;SDS011;27720;51.992;5.890;2023-08-07T19:04:14;0.75;;;0.43;;
41556;SDS011;27720;51.992;5.890;2023-08-07T19:06:41;1.50;;;0.50;;
41556;SDS011;27720;51.992;5.890;2023-08-07T19:09:08;1.30;;;0.90;;
41556;SDS011;27720;51.992;5.890;2023-08-07T19:11:34;1.63;;;0.70;;
41556;SDS011;27720;51.992;5.890;2023-08-07T19:14:00;1.33;;;0.60;;
41556;SDS011;27720;51.992;5.890;2023-08-07T19:16:26;0.70;;;0.40;;
41556;SDS011;27720;51.992;5.890;2023-08-07T19:18:53;0.65;;;0.50;;
41556;SDS011;27720;51.992;5.890;2023-08-07T19:21:20;1.17;;;0.50;;
41556;SDS011;27720;51.992;5.890;2023-08-07T19:23:46;1.45;;;0.60;;
41556;SDS011;27720;51.992;5.890;2023-08-07T19:26:11;3.17;;;0.57;;
41556;SDS011;27720;51.992;5.890;2023-08-07T19:28:37;0.30;;;0.30;;
41556;SDS011;27720;51.992;5.890;2023-08-07T19:31:05;1.10;;;0.60;;
41556;SDS011;27720;51.992;5.890;2023-08-07T19:33:31;1.58;;;0.60;;
41556;SDS011;27720;51.992;5.890;2023-08-07T19:35:56;1.00;;;0.50;;
41556;SDS011;27720;51.992;5.890;2023-08-07T19:38:22;0.70;;;0.47;;
41556;SDS011;27720;51.992;5.890;2023-08-07T19:40:48;1.38;;;0.47;;
41556;SDS011;27720;51.992;5.890;2023-08-07T19:43:14;0.90;;;0.52;;
41556;SDS011;27720;51.992;5.890;2023-08-07T19:45:39;0.80;;;0.30;;
41556;SDS011;27720;51.992;5.890;2023-08-07T19:48:05;0.93;;;0.40;;
41556;SDS011;27720;51.992;5.890;2023-08-07T19:50:31;1.30;;;0.50;;
41556;SDS011;27720;51.992;5.890;2023-08-07T19:52:57;0.70;;;0.30;;
41556;SDS011;27720;51.992;5.890;2023-08-07T19:55:23;1.67;;;0.70;;
41556;SDS011;27720;51.992;5.890;2023-08-07T19:57:48;0.80;;;0.45;;
41556;SDS011;27720;51.992;5.890;2023-08-07T20:00:14;6.70;;;0.90;;
41556;SDS011;27720;51.992;5.890;2023-08-07T20:02:40;1.52;;;0.75;;
41556;SDS011;27720;51.992;5.890;2023-08-07T20:05:06;1.38;;;0.70;;
41556;SDS011;27720;51.992;5.890;2023-08-07T20:07:35;0.65;;;0.47;;
41556;SDS011;27720;51.992;5.890;2023-08-07T20:10:01;0.57;;;0.40;;
41556;SDS011;27720;51.992;5.890;2023-08-07T20:12:27;0.65;;;0.30;;
41556;SDS011;27720;51.992;5.890;2023-08-07T20:14:53;1.15;;;0.45;;
41556;SDS011;27720;51.992;5.890;2023-08-07T20:17:18;2.45;;;0.60;;
41556;SDS011;27720;51.992;5.890;2023-08-07T20:19:44;1.90;;;0.60;;
41556;SDS011;27720;51.992;5.890;2023-08-07T20:22:12;0.93;;;0.57;;
41556;SDS011;27720;51.992;5.890;2023-08-07T20:24:37;1.27;;;0.55;;
41556;SDS011;27720;51.992;5.890;2023-08-07T20:27:03;2.53;;;0.50;;
41556;SDS011;27720;51.992;5.890;2023-08-07T20:29:29;0.47;;;0.40;;
41556;SDS011;27720;51.992;5.890;2023-08-07T20:31:55;0.55;;;0.30;;
41556;SDS011;27720;51.992;5.890;2023-08-07T20:34:20;5.45;;;0.68;;
41556;SDS011;27720;51.992;5.890;2023-08-07T20:36:46;1.80;;;0.50;;
41556;SDS011;27720;51.992;5.890;2023-08-07T20:39:12;0.68;;;0.60;;
41556;SDS011;27720;51.992;5.890;2023-08-07T20:41:38;1.38;;;0.50;;
41556;SDS011;27720;51.992;5.890;2023-08-07T20:44:04;1.23;;;0.50;;
41556;SDS011;27720;51.992;5.890;2023-08-07T20:46:30;0.98;;;0.63;;
41556;SDS011;27720;51.992;5.890;2023-08-07T20:48:58;0.98;;;0.60;;
41556;SDS011;27720;51.992;5.890;2023-08-07T20:51:24;0.70;;;0.50;;
41556;SDS011;27720;51.992;5.890;2023-08-07T20:53:50;2.45;;;1.05;;
41556;SDS011;27720;51.992;5.890;2023-08-07T20:56:17;0.90;;;0.63;;
41556;SDS011;27720;51.992;5.890;2023-08-07T20:58:46;1.08;;;0.70;;
41556;SDS011;27720;51.992;5.890;2023-08-07T21:01:12;1.63;;;0.63;;
41556;SDS011;27720;51.992;5.890;2023-08-07T21:03:37;0.93;;;0.70;;
41556;SDS011;27720;51.992;5.890;2023-08-07T21:06:03;0.70;;;0.50;;
41556;SDS011;27720;51.992;5.890;2023-08-07T21:08:29;1.88;;;0.60;;
41556;SDS011;27720;51.992;5.890;2023-08-07T21:10:54;2.10;;;0.60;;
41556;SDS011;27720;51.992;5.890;2023-08-07T21:13:20;1.13;;;0.47;;
41556;SDS011;27720;51.992;5.890;2023-08-07T21:15:56;3.35;;;0.80;;
41556;SDS011;27720;51.992;5.890;2023-08-07T21:18:22;1.92;;;0.75;;
41556;SDS011;27720;51.992;5.890;2023-08-07T21:20:47;1.63;;;1.00;;
41556;SDS011;27720;51.992;5.890;2023-08-07T21:23:13;0.73;;;0.60;;
41556;SDS011;27720;51.992;5.890;2023-08-07T21:25:40;1.30;;;0.73;;
41556;SDS011;27720;51.992;5.890;2023-08-07T21:28:06;2.30;;;0.90;;
41556;SDS011;27720;51.992;5.890;2023-08-07T21:30:33;2.25;;;0.65;;
41556;SDS011;27720;51.992;5.890;2023-08-07T21:32:59;2.35;;;0.80;;
41556;SDS011;27720;51.992;5.890;2023-08-07T21:35:25;1.02;;;0.80;;
41556;SDS011;27720;51.992;5.890;2023-08-07T21:37:53;1.58;;;0.80;;
41556;SDS011;27720;51.992;5.890;2023-08-07T21:40:19;1.55;;;0.80;;
41556;SDS011;27720;51.992;5.890;2023-08-07T21:42:45;1.20;;;0.63;;
41556;SDS011;27720;51.992;5.890;2023-08-07T21:45:10;2.42;;;1.10;;
41556;SDS011;27720;51.992;5.890;2023-08-07T21:47:36;1.70;;;0.98;;
41556;SDS011;27720;51.992;5.890;2023-08-07T21:50:06;1.50;;;0.95;;
41556;SDS011;27720;51.992;5.890;2023-08-07T21:52:33;1.90;;;0.80;;
41556;SDS011;27720;51.992;5.890;2023-08-07T21:54:58;2.05;;;0.90;;
41556;SDS011;27720;51.992;5.890;2023-08-07T21:57:24;6.18;;;0.98;;
41556;SDS011;27720;51.992;5.890;2023-08-07T21:59:50;2.45;;;1.00;;
41556;SDS011;27720;51.992;5.890;2023-08-07T22:02:15;2.38;;;1.00;;
41556;SDS011;27720;51.992;5.890;2023-08-07T22:04:41;2.92;;;0.88;;
41556;SDS011;27720;51.992;5.890;2023-08-07T22:07:07;1.67;;;0.70;;
41556;SDS011;27720;51.992;5.890;2023-08-07T22:09:33;1.33;;;0.90;;
41556;SDS011;27720;51.992;5.890;2023-08-07T22:11:58;1.30;;;0.77;;
41556;SDS011;27720;51.992;5.890;2023-08-07T22:14:24;1.95;;;0.93;;
41556;SDS011;27720;51.992;5.890;2023-08-07T22:16:50;1.67;;;0.80;;
41556;SDS011;27720;51.992;5.890;2023-08-07T22:19:16;1.63;;;1.00;;
41556;SDS011;27720;51.992;5.890;2023-08-07T22:21:42;1.02;;;0.70;;
41556;SDS011;27720;51.992;5.890;2023-08-07T22:24:08;0.93;;;0.60;;
41556;SDS011;27720;51.992;5.890;2023-08-07T22:26:33;1.70;;;1.08;;
41556;SDS011;27720;51.992;5.890;2023-08-07T22:28:59;2.33;;;0.90;;
41556;SDS011;27720;51.992;5.890;2023-08-07T22:31:25;2.03;;;0.80;;
41556;SDS011;27720;51.992;5.890;2023-08-07T22:33:51;1.20;;;0.90;;
41556;SDS011;27720;51.992;5.890;2023-08-07T22:36:19;2.95;;;1.10;;
41556;SDS011;27720;51.992;5.890;2023-08-07T22:38:45;2.58;;;0.80;;
41556;SDS011;27720;51.992;5.890;2023-08-07T22:41:11;0.93;;;0.63;;
41556;SDS011;27720;51.992;5.890;2023-08-07T22:43:36;1.60;;;0.80;;
41556;SDS011;27720;51.992;5.890;2023-08-07T22:46:02;2.03;;;0.80;;
41556;SDS011;27720;51.992;5.890;2023-08-07T22:48:28;1.52;;;0.88;;
41556;SDS011;27720;51.992;5.890;2023-08-07T22:50:53;1.98;;;0.98;;
41556;SDS011;27720;51.992;5.890;2023-08-07T22:53:19;1.75;;;0.90;;
41556;SDS011;27720;51.992;5.890;2023-08-07T22:55:48;3.40;;;1.17;;
41556;SDS011;27720;51.992;5.890;2023-08-07T22:58:14;1.70;;;0.98;;
41556;SDS011;27720;51.992;5.890;2023-08-07T23:00:40;1.65;;;1.13;;
41556;SDS011;27720;51.992;5.890;2023-08-07T23:03:06;1.52;;;0.90;;
41556;SDS011;27720;51.992;5.890;2023-08-07T23:05:32;2.75;;;0.90;;
41556;SDS011;27720;51.992;5.890;2023-08-07T23:07:58;1.48;;;0.90;;
41556;SDS011;27720;51.992;5.890;2023-08-07T23:10:23;1.67;;;0.93;;
41556;SDS011;27720;51.992;5.890;2023-08-07T23:12:49;2.05;;;1.10;;
41556;SDS011;27720;51.992;5.890;2023-08-07T23:15:18;2.13;;;1.08;;
41556;SDS011;27720;51.992;5.890;2023-08-07T23:17:44;1.50;;;0.80;;
41556;SDS011;27720;51.992;5.890;2023-08-07T23:20:13;2.28;;;1.20;;
41556;SDS011;27720;51.992;5.890;2023-08-07T23:22:39;1.98;;;1.15;;
41556;SDS011;27720;51.992;5.890;2023-08-07T23:25:07;2.15;;;0.80;;
41556;SDS011;27720;51.992;5.890;2023-08-07T23:27:33;1.88;;;1.00;;
41556;SDS011;27720;51.992;5.890;2023-08-07T23:29:59;2.30;;;1.10;;
41556;SDS011;27720;51.992;5.890;2023-08-07T23:32:25;1.70;;;1.00;;
41556;SDS011;27720;51.992;5.890;2023-08-07T23:34:54;4.43;;;1.00;;
41556;SDS011;27720;51.992;5.890;2023-08-07T23:37:23;2.33;;;0.98;;
41556;SDS011;27720;51.992;5.890;2023-08-07T23:39:48;4.80;;;1.33;;